Time;durP1;ratioP1;P1;durP2;ratioP2;P2;SDS_P1;SDS_P2;PMS_P1;PMS_P2;Temp;Humidity;BMP_temperature;BMP_pressure;BME280_temperature;BME280_humidity;BME280_pressure;Samples;Min_cycle;Max_cycle;Signal;HPM_P1;HPM_P2
2022/11/16 00:04:23;;;;;;;6.22;2.08;;;;;;;13.91;100.00;99739.06;10422231;28;96679;-75
2022/11/16 00:09:28;;;;;;;8.27;1.90;;;;;;;13.85;100.00;99744.66;10421188;28;96582;-75
2022/11/16 00:14:34;;;;;;;6.18;1.50;;;;;;;13.79;100.00;99755.47;10421224;28;96843;-75
2022/11/16 00:19:38;;;;;;;7.75;1.65;;;;;;;13.77;100.00;99757.34;10421937;28;96937;-75
2022/11/16 00:24:41;;;;;;;7.63;1.77;;;;;;;13.67;100.00;99741.22;10421624;28;97063;-75
2022/11/16 00:29:45;;;;;;;5.78;1.23;;;;;;;13.65;100.00;99756.22;10397416;28;96745;-75
2022/11/16 00:34:48;;;;;;;6.90;1.40;;;;;;;13.65;100.00;99742.25;10421692;28;97099;-75
2022/11/16 00:39:52;;;;;;;4.07;0.90;;;;;;;13.60;100.00;99732.84;10421152;28;96883;-75
2022/11/16 00:44:56;;;;;;;4.75;1.08;;;;;;;13.61;100.00;99731.88;10420817;28;97815;-75
2022/11/16 00:49:59;;;;;;;4.88;1.13;;;;;;;13.57;100.00;99722.47;10420789;28;96710;-75
2022/11/16 00:55:02;;;;;;;4.60;1.08;;;;;;;13.62;100.00;99719.63;10421207;28;96733;-75
2022/11/16 01:00:09;;;;;;;5.80;1.17;;;;;;;13.66;100.00;99712.41;10419641;28;96553;-75
2022/11/16 01:05:12;;;;;;;2.42;0.80;;;;;;;13.69;100.00;99710.47;10420292;28;96896;-75
2022/11/16 01:10:17;;;;;;;4.32;1.10;;;;;;;13.70;100.00;99713.94;10420078;28;96820;-75
2022/11/16 01:15:24;;;;;;;7.40;1.42;;;;;;;13.67;100.00;99717.56;10420487;28;96718;-75
2022/11/16 01:20:29;;;;;;;8.02;1.17;;;;;;;13.70;100.00;99711.31;10419612;28;96621;-75
2022/11/16 01:25:32;;;;;;;4.30;1.02;;;;;;;13.67;100.00;99708.84;10419870;28;96819;-75
2022/11/16 01:30:37;;;;;;;4.20;1.08;;;;;;;13.61;100.00;99721.38;10419886;28;96805;-75
2022/11/16 01:35:43;;;;;;;6.35;1.20;;;;;;;13.60;100.00;99717.06;10420401;28;96747;-75
2022/11/16 01:40:46;;;;;;;4.15;1.08;;;;;;;13.62;100.00;99714.38;10419007;28;97405;-75
2022/11/16 01:45:51;;;;;;;6.03;1.35;;;;;;;13.59;100.00;99704.00;10419349;28;96761;-75
2022/11/16 01:50:55;;;;;;;;;;;;;;;13.52;100.00;99700.03;10422965;27;96811;-75
2022/11/16 01:55:58;;;;;;;6.20;1.52;;;;;;;13.58;100.00;99700.50;10426950;28;97661;-75
2022/11/16 02:01:03;;;;;;;3.75;1.23;;;;;;;13.61;100.00;99692.47;10426399;28;97235;-75
2022/11/16 02:06:23;;;;;;;2.90;1.05;;;;;;;13.62;100.00;99670.53;10426229;28;96593;-75
2022/11/16 02:11:46;;;;;;;6.20;1.42;;;;;;;13.57;100.00;99676.97;10425760;28;96618;-75
2022/11/16 02:16:57;;;;;;;7.18;1.58;;;;;;;13.56;100.00;99665.59;10425978;28;97252;-75
2022/11/16 02:22:14;;;;;;;5.95;1.23;;;;;;;13.58;100.00;99663.72;10426041;28;96872;-75
2022/11/16 02:27:50;;;;;;;4.63;1.25;;;;;;;13.60;100.00;99647.91;10425420;28;97048;-75
2022/11/16 02:33:00;;;;;;;5.88;1.20;;;;;;;13.60;100.00;99659.28;10425329;28;96684;-75
2022/11/16 02:38:13;;;;;;;4.10;1.20;;;;;;;13.56;100.00;99649.84;10425428;28;97053;-75
2022/11/16 02:43:21;;;;;;;5.78;1.40;;;;;;;13.56;100.00;99634.06;10423020;28;96847;-75
2022/11/16 02:48:31;;;;;;;5.68;1.30;;;;;;;13.53;100.00;99634.25;10424453;28;96673;-75
2022/11/16 02:53:41;;;;;;;3.60;1.10;;;;;;;13.52;100.00;99637.81;10424538;28;97076;-75
2022/11/16 02:58:44;;;;;;;4.35;1.20;;;;;;;13.50;100.00;99647.56;10424522;28;96825;-75
2022/11/16 03:03:53;;;;;;;5.72;1.20;;;;;;;13.50;100.00;99644.94;10424159;28;96676;-75
2022/11/16 03:09:02;;;;;;;7.00;1.63;;;;;;;13.51;100.00;99641.34;10424173;28;96540;-75
2022/11/16 03:14:09;;;;;;;7.95;1.42;;;;;;;13.56;100.00;99641.97;10423438;28;96936;-75
2022/11/16 03:19:19;;;;;;;5.60;1.60;;;;;;;13.54;100.00;99645.63;10424564;28;96717;-75
2022/11/16 03:24:23;;;;;;;9.65;1.58;;;;;;;13.55;100.00;99644.66;10423553;28;96849;-75
2022/11/16 03:29:32;;;;;;;8.27;1.33;;;;;;;13.52;100.00;99647.47;10421773;28;96698;-75
2022/11/16 03:34:38;;;;;;;8.05;1.73;;;;;;;13.57;100.00;99634.94;10422324;28;96725;-75
2022/11/16 03:39:42;;;;;;;5.72;1.67;;;;;;;13.59;100.00;99627.84;10423598;28;98084;-74
2022/11/16 03:44:46;;;;;;;7.17;1.40;;;;;;;13.59;100.00;99623.41;10422360;28;96828;-75
2022/11/16 03:49:51;;;;;;;8.40;1.60;;;;;;;13.62;100.00;99636.38;10422161;28;96577;-75
2022/11/16 03:54:54;;;;;;;5.15;1.15;;;;;;;13.60;100.00;99638.25;10422581;28;96751;-75
2022/11/16 03:59:57;;;;;;;8.65;1.73;;;;;;;13.62;100.00;99632.91;10422830;28;96920;-75
2022/11/16 04:28:12;;;;;;;12.68;1.38;;;;;;;13.69;100.00;99649.16;10420211;28;96684;-75
2022/11/16 04:42:42;;;;;;;8.82;1.90;;;;;;;13.62;100.00;99625.88;10420888;28;97398;-75
2022/11/16 04:47:48;;;;;;;7.25;1.27;;;;;;;13.60;100.00;99622.50;10420724;28;96703;-75
2022/11/16 04:52:52;;;;;;;8.50;1.88;;;;;;;13.53;100.00;99610.59;10420908;28;96664;-75
2022/11/16 04:57:55;;;;;;;6.20;1.38;;;;;;;13.58;100.00;99616.44;10420653;28;96749;-75
2022/11/16 05:02:59;;;;;;;7.78;1.67;;;;;;;13.59;100.00;99618.16;10420773;28;96670;-75
2022/11/16 05:08:05;;;;;;;;;;;;;;;13.52;100.00;99616.81;10420924;28;96681;-75
2022/11/16 05:13:08;;;;;;;7.88;1.73;;;;;;;13.52;100.00;99619.44;10420490;28;96652;-75
2022/11/16 05:18:11;;;;;;;6.25;1.63;;;;;;;13.51;100.00;99609.84;10419039;28;96674;-75
2022/11/16 05:28:32;;;;;;;6.45;1.85;;;;;;;13.41;100.00;99599.00;10426609;28;96846;-75
2022/11/16 05:33:36;;;;;;;6.65;2.00;;;;;;;13.46;100.00;99584.75;10426937;28;96812;-75
2022/11/16 05:38:41;;;;;;;6.55;1.90;;;;;;;13.47;100.00;99576.81;10426925;28;96564;-75
2022/11/16 05:43:44;;;;;;;5.32;1.25;;;;;;;13.47;100.00;99576.81;10426563;28;96864;-75
2022/11/16 05:48:47;;;;;;;6.38;1.30;;;;;;;13.46;100.00;99582.97;10426682;28;96809;-75
2022/11/16 05:53:52;;;;;;;5.30;1.58;;;;;;;13.46;100.00;99582.13;10427274;28;96744;-75
2022/11/16 05:58:55;;;;;;;9.65;1.90;;;;;;;13.46;100.00;99577.72;10426213;28;96785;-75
2022/11/16 06:04:00;;;;;;;4.72;1.20;;;;;;;13.46;100.00;99575.09;10426279;28;96734;-75
2022/11/16 06:09:05;;;;;;;8.70;1.38;;;;;;;13.45;100.00;99578.69;10424808;28;96978;-75
2022/11/16 06:14:08;;;;;;;6.30;1.13;;;;;;;13.49;100.00;99574.94;10426430;28;96714;-76
2022/11/16 06:19:11;;;;;;;3.97;1.05;;;;;;;13.50;100.00;99566.13;10425089;28;96965;-75
2022/11/16 06:24:16;;;;;;;8.68;1.25;;;;;;;13.47;100.00;99555.78;10425051;28;96683;-75
2022/11/16 06:29:19;;;;;;;8.25;1.40;;;;;;;13.47;100.00;99552.34;10396412;28;96756;-75
2022/11/16 06:34:23;;;;;;;6.88;1.30;;;;;;;13.48;100.00;99543.50;10383648;28;96912;-75
2022/11/16 06:39:28;;;;;;;3.03;0.80;;;;;;;13.49;100.00;99551.31;10383665;28;96720;-75
2022/11/16 06:44:31;;;;;;;5.05;0.88;;;;;;;13.49;100.00;99532.06;10403916;28;98034;-75
2022/11/16 06:49:34;;;;;;;4.22;0.98;;;;;;;13.44;100.00;99542.81;10424661;28;96797;-75
2022/11/16 06:54:39;;;;;;;5.55;1.27;;;;;;;13.43;100.00;99542.00;10424624;28;97032;-75
2022/11/16 06:59:42;;;;;;;;;;;;;;;13.37;100.00;99541.47;10423886;28;96906;-75
2022/11/16 07:04:45;;;;;;;4.90;1.08;;;;;;;13.35;100.00;99527.59;10424573;28;96806;-75
2022/11/16 07:09:50;;;;;;;4.13;0.93;;;;;;;13.36;100.00;99524.00;10424032;28;97061;-75
2022/11/16 07:14:53;;;;;;;4.40;1.10;;;;;;;13.35;100.00;99530.22;10423850;28;96983;-75
2022/11/16 07:19:56;;;;;;;3.17;0.85;;;;;;;13.32;100.00;99525.97;10423148;28;96811;-75
2022/11/16 07:25:01;;;;;;;4.75;0.88;;;;;;;13.41;100.00;99535.09;10423166;28;96682;-75
2022/11/16 07:30:05;;;;;;;2.53;0.75;;;;;;;13.40;100.00;99533.44;10423431;28;97267;-75
2022/11/16 07:35:08;;;;;;;4.80;0.90;;;;;;;13.39;100.00;99519.47;10424032;28;96797;-75
2022/11/16 07:40:13;;;;;;;3.15;0.80;;;;;;;13.47;100.00;99524.28;10422776;28;96854;-76
2022/11/16 07:45:17;;;;;;;4.40;0.85;;;;;;;13.52;100.00;99529.28;10423151;28;96675;-75
2022/11/16 07:50:20;;;;;;;3.80;1.00;;;;;;;13.50;100.00;99529.38;10420962;28;96956;-75
2022/11/16 07:55:30;;;;;;;4.43;1.15;;;;;;;13.48;100.00;99525.13;10422748;28;96838;-75
2022/11/16 08:00:33;;;;;;;4.88;1.02;;;;;;;13.50;100.00;99529.38;10422567;28;96560;-75
2022/11/16 08:05:36;;;;;;;4.63;1.02;;;;;;;13.53;100.00;99534.44;10421974;28;96683;-75
2022/11/16 08:10:41;;;;;;;4.63;1.00;;;;;;;13.61;100.00;99532.22;10421801;28;96622;-75
2022/11/16 08:15:44;;;;;;;3.03;0.77;;;;;;;13.68;100.00;99531.91;10422252;28;96778;-75
2022/11/16 08:20:47;;;;;;;2.92;1.10;;;;;;;13.68;100.00;99529.25;10421503;28;98128;-76
2022/11/16 08:25:52;;;;;;;2.95;1.05;;;;;;;13.65;100.00;99537.31;10411830;28;96775;-75
2022/11/16 08:30:56;;;;;;;2.70;0.43;;;;;;;13.67;100.00;99541.53;10379761;28;97035;-75
2022/11/16 08:36:04;;;;;;;2.73;0.77;;;;;;;13.68;100.00;99550.28;10379452;28;96767;-75
2022/11/16 08:41:17;;;;;;;0.80;0.40;;;;;;;13.70;100.00;99564.19;10379487;28;96878;-75
2022/11/16 08:46:20;;;;;;;0.85;0.30;;;;;;;13.65;100.00;99558.34;10421344;28;96774;-76
2022/11/16 08:51:25;;;;;;;1.38;0.50;;;;;;;13.64;100.00;99568.00;10420766;28;97432;-75
2022/11/16 08:56:30;;;;;;;1.60;0.20;;;;;;;13.58;100.00;99574.41;10420938;28;96731;-76
2022/11/16 09:01:33;;;;;;;0.80;0.30;;;;;;;13.54;100.00;99588.66;10427568;27;96704;-75
2022/11/16 09:06:36;;;;;;;1.10;0.40;;;;;;;13.53;100.00;99602.72;10427475;28;96647;-75
2022/11/16 09:11:41;;;;;;;1.25;0.15;;;;;;;13.49;100.00;99606.44;10427896;28;96830;-76
2022/11/16 09:16:44;;;;;;;0.75;0.28;;;;;;;13.50;100.00;99620.44;10427892;28;96756;-75
2022/11/16 09:21:47;;;;;;;1.52;0.30;;;;;;;13.52;100.00;99616.81;10427211;28;96800;-75
2022/11/16 09:26:52;;;;;;;0.55;0.38;;;;;;;13.60;100.00;99619.88;10425449;28;97048;-75
2022/11/16 09:31:57;;;;;;;1.13;0.10;;;;;;;13.73;100.00;99617.41;10426396;28;96774;-75
2022/11/16 09:37:00;;;;;;;1.08;0.32;;;;;;;13.84;100.00;99627.31;10427152;28;96610;-75
2022/11/16 09:42:19;;;;;;;2.08;0.82;;;;;;;13.87;100.00;99626.31;10426515;28;97294;-76
2022/11/16 09:47:31;;;;;;;0.85;0.40;;;;;;;13.91;100.00;99623.41;10426943;28;96606;-75
2022/11/16 09:52:41;;;;;;;2.47;0.60;;;;;;;13.93;100.00;99613.69;10425939;28;96773;-75
2022/11/16 09:57:47;;;;;;;0.43;0.30;;;;;;;13.94;100.00;99617.16;10426693;28;96671;-75
2022/11/16 10:03:01;;;;;;;1.10;0.20;;;;;;;13.96;100.00;99620.53;10426437;28;97372;-75
2022/11/16 10:08:12;;;;;;;3.50;0.37;;;;;;;14.06;100.00;99626.13;10426874;28;96643;-75
2022/11/16 10:13:34;;;;;;;2.20;0.30;;;;;;;14.08;100.00;99619.00;10424933;28;96638;-75
2022/11/16 10:18:47;;;;;;;0.22;0.13;;;;;;;14.11;100.00;99614.41;10426206;28;96964;-75
2022/11/16 10:24:04;;;;;;;1.27;0.32;;;;;;;14.17;100.00;99613.19;10424455;28;97238;-75
2022/11/16 10:29:26;;;;;;;0.82;0.20;;;;;;;14.21;100.00;99598.09;10424752;28;96748;-75
2022/11/16 10:34:36;;;;;;;0.88;0.15;;;;;;;14.27;100.00;99587.25;10425183;28;96725;-75
2022/11/16 10:39:39;;;;;;;0.60;0.38;;;;;;;14.33;100.00;99607.94;10425363;28;97024;-75
2022/11/16 10:44:49;;;;;;;1.33;0.10;;;;;;;14.30;100.00;99602.84;10424570;28;96761;-75
2022/11/16 10:49:57;;;;;;;0.30;0.25;;;;;;;14.29;100.00;99601.13;10424799;28;96716;-75
2022/11/16 10:55:00;;;;;;;0.17;0.17;;;;;;;14.29;100.00;99588.81;10424748;28;96620;-76
2022/11/16 11:00:06;;;;;;;0.90;0.30;;;;;;;14.33;100.00;99593.03;10425159;28;96742;-75
2022/11/16 11:05:20;;;;;;;0.43;0.20;;;;;;;14.37;100.00;99589.28;10424005;28;96641;-75
2022/11/16 11:10:28;;;;;;;1.60;0.30;;;;;;;14.40;100.00;99576.88;10423971;28;96580;-75
2022/11/16 11:15:34;;;;;;;0.38;0.32;;;;;;;14.39;100.00;99564.69;10422232;28;96963;-75
2022/11/16 11:20:40;;;;;;;3.28;0.30;;;;;;;14.42;100.00;99560.06;10422795;27;96669;-75
2022/11/16 11:25:53;;;;;;;0.47;0.30;;;;;;;14.46;100.00;99547.59;10422928;28;96845;-75
2022/11/16 11:31:01;;;;;;;0.75;0.22;;;;;;;14.45;100.00;99543.25;10423770;28;96801;-76
2022/11/16 11:36:11;;;;;;;0.60;0.20;;;;;;;14.44;100.00;99537.16;10422981;28;96695;-76
2022/11/16 11:41:19;;;;;;;2.45;0.30;;;;;;;14.45;100.00;99516.94;10422568;28;96696;-75
2022/11/16 11:46:29;;;;;;;0.73;0.30;;;;;;;14.46;100.00;99503.72;10423157;28;96649;-75
2022/11/16 11:51:58;;;;;;;0.32;0.20;;;;;;;14.54;100.00;99482.19;10423067;28;96599;-75
2022/11/16 11:57:04;;;;;;;1.42;0.20;;;;;;;14.60;100.00;99466.03;10422358;28;97046;-75
2022/11/16 12:02:24;;;;;;;1.10;0.50;;;;;;;14.62;100.00;99471.22;10422475;28;97145;-75
2022/11/16 12:07:40;;;;;;;1.20;0.40;;;;;;;14.61;100.00;99465.13;10420713;28;97130;-75
2022/11/16 12:12:55;;;;;;;1.33;0.93;;;;;;;14.64;100.00;99464.91;10422271;28;96967;-75
2022/11/16 12:18:17;;;;;;;1.70;0.50;;;;;;;14.56;100.00;99451.41;10422147;28;96701;-75
2022/11/16 12:23:50;;;;;;;0.85;0.50;;;;;;;14.60;100.00;99458.16;10420889;28;96799;-76
2022/11/16 12:29:06;;;;;;;0.70;0.40;;;;;;;14.61;100.00;99449.31;10420124;28;96968;-76
2022/11/16 12:34:22;;;;;;;0.70;0.50;;;;;;;14.66;100.00;99434.09;10421149;28;96672;-76
2022/11/16 12:39:33;;;;;;;0.90;0.40;;;;;;;14.67;100.00;99432.31;10421410;28;97106;-75
2022/11/16 12:45:00;;;;;;;1.65;0.80;;;;;;;14.74;100.00;99434.44;10421461;28;96720;-75
2022/11/16 12:50:31;;;;;;;1.92;0.70;;;;;;;14.77;100.00;99435.22;10420950;28;96771;-75
2022/11/16 12:55:43;;;;;;;0.90;0.40;;;;;;;14.75;100.00;99435.31;10421125;28;96572;-75
2022/11/16 13:01:01;;;;;;;1.25;0.50;;;;;;;14.74;100.00;99423.91;10419801;28;96727;-75
2022/11/16 13:06:09;;;;;;;0.40;0.20;;;;;;;14.75;100.00;99415.09;10420720;28;96748;-75
2022/11/16 13:11:18;;;;;;;1.05;0.30;;;;;;;14.80;100.00;99414.81;10420000;28;96833;-76
2022/11/16 13:16:24;;;;;;;1.55;0.50;;;;;;;14.80;100.00;99403.44;10420018;28;96744;-75
2022/11/16 13:21:38;;;;;;;0.85;0.30;;;;;;;14.84;100.00;99397.03;10420281;28;96950;-75
2022/11/16 13:26:48;;;;;;;0.57;0.30;;;;;;;14.87;100.00;99424.00;10419942;28;97114;-75
2022/11/16 13:31:58;;;;;;;0.68;0.20;;;;;;;14.88;100.00;99436.22;10419901;28;96964;-75
2022/11/16 13:37:41;;;;;;;0.63;0.30;;;;;;;14.87;100.00;99429.28;10420726;28;96787;-75
2022/11/16 13:42:57;;;;;;;1.15;0.20;;;;;;;14.89;100.00;99432.66;10419246;28;96995;-75
2022/11/16 13:48:02;;;;;;;1.45;0.50;;;;;;;14.89;100.00;99419.50;10425091;28;96787;-75
2022/11/16 13:53:12;;;;;;;1.63;0.30;;;;;;;14.91;100.00;99408.88;10425682;28;96506;-75
2022/11/16 13:58:43;;;;;;;0.65;0.50;;;;;;;14.98;100.00;99410.16;10426383;28;96840;-75
2022/11/16 14:03:48;;;;;;;0.50;0.40;;;;;;;15.03;100.00;99408.09;10426314;28;96860;-75
2022/11/16 14:08:53;;;;;;;0.57;0.57;;;;;;;15.09;100.00;99406.84;10425381;28;96888;-75
2022/11/16 14:14:00;;;;;;;1.50;0.60;;;;;;;15.17;100.00;99403.72;10425570;28;97223;-75
2022/11/16 14:19:05;;;;;;;1.13;0.70;;;;;;;15.12;100.00;99404.03;10425724;28;96753;-76
2022/11/16 14:24:22;;;;;;;1.70;0.60;;;;;;;15.06;100.00;99413.16;10425222;28;96717;-75
2022/11/16 14:29:49;;;;;;;0.98;0.50;;;;;;;15.05;100.00;99400.94;10426130;28;96601;-75
2022/11/16 14:34:55;;;;;;;1.58;0.40;;;;;;;15.06;100.00;99405.25;10425207;28;97112;-75
2022/11/16 14:40:04;;;;;;;0.68;0.50;;;;;;;15.06;100.00;99404.41;10424425;28;97234;-75
2022/11/16 14:45:20;;;;;;;1.02;0.50;;;;;;;15.06;100.00;99384.19;10423799;28;96721;-75
2022/11/16 14:50:26;;;;;;;1.45;0.68;;;;;;;15.08;100.00;99387.56;10424670;28;96610;-75
2022/11/16 14:55:30;;;;;;;1.67;0.70;;;;;;;15.14;100.00;99373.16;10424442;27;96692;-75
2022/11/16 15:00:34;;;;;;;1.70;0.30;;;;;;;15.17;100.00;99356.34;10424446;28;97799;-75
2022/11/16 15:05:38;;;;;;;1.13;0.60;;;;;;;15.17;100.00;99364.22;10424705;28;97155;-75
2022/11/16 15:10:46;;;;;;;0.57;0.38;;;;;;;15.19;100.00;99365.81;10423868;28;96801;-75
2022/11/16 15:16:09;;;;;;;0.60;0.30;;;;;;;15.22;100.00;99359.50;10424024;28;96745;-75
2022/11/16 15:21:22;;;;;;;2.83;0.40;;;;;;;15.22;100.00;99356.88;10424870;28;98188;-75
2022/11/16 15:26:26;;;;;;;0.77;0.50;;;;;;;15.21;100.00;99363.91;10423756;28;96783;-75
2022/11/16 15:31:29;;;;;;;2.33;0.60;;;;;;;15.21;100.00;99358.63;10410625;28;96721;-75
2022/11/16 15:36:38;;;;;;;0.65;0.40;;;;;;;15.23;100.00;99363.81;10421717;28;96641;-75
2022/11/16 15:41:44;;;;;;;1.05;0.40;;;;;;;15.18;100.00;99368.53;10422831;28;96836;-75
2022/11/16 15:46:50;;;;;;;0.88;0.45;;;;;;;15.20;100.00;99371.91;10422725;28;96674;-75
2022/11/16 15:51:54;;;;;;;1.27;0.50;;;;;;;15.17;100.00;99362.44;10422894;28;96737;-76
2022/11/16 15:57:07;;;;;;;1.17;0.35;;;;;;;15.19;100.00;99373.69;10422790;28;97209;-76
2022/11/16 16:02:18;;;;;;;1.55;0.50;;;;;;;15.17;100.00;99378.22;10422558;28;96658;-76
2022/11/16 16:07:38;;;;;;;0.40;0.40;;;;;;;15.16;100.00;99371.25;10421526;27;96695;-75
2022/11/16 16:12:50;;;;;;;0.43;0.30;;;;;;;15.16;100.00;99376.53;10422728;28;96689;-75
2022/11/16 16:17:54;;;;;;;2.17;0.47;;;;;;;15.18;100.00;99400.13;10421899;28;96640;-75
2022/11/16 16:23:08;;;;;;;3.42;0.70;;;;;;;15.16;100.00;99407.28;10421512;28;96636;-75
2022/11/16 16:28:13;;;;;;;2.90;0.60;;;;;;;15.16;100.00;99402.03;10420773;28;97018;-76
2022/11/16 16:33:20;;;;;;;2.33;0.60;;;;;;;15.19;100.00;99396.56;10421640;28;96560;-75
2022/11/16 16:38:24;;;;;;;1.85;0.60;;;;;;;15.19;100.00;99397.41;10421692;28;96897;-75
2022/11/16 16:43:28;;;;;;;3.53;1.23;;;;;;;15.21;100.00;99405.22;10420617;28;96696;-75
2022/11/16 16:48:31;;;;;;;;;;;;;;;15.15;100.00;99406.47;10420968;28;97021;-75
2022/11/16 16:53:35;;;;;;;2.63;0.70;;;;;;;15.17;100.00;99419.53;10421200;28;96637;-75
2022/11/16 16:58:40;;;;;;;2.35;0.85;;;;;;;15.21;100.00;99419.22;10420894;28;96739;-75
2022/11/16 17:03:43;;;;;;;;;;;;;;;15.15;100.00;99435.44;10421560;28;96924;-75
2022/11/16 17:08:46;;;;;;;2.53;0.70;;;;;;;15.19;100.00;99429.00;10420624;28;97148;-75
2022/11/16 17:13:51;;;;;;;2.15;0.63;;;;;;;15.20;100.00;99435.09;10420141;28;96707;-75
2022/11/16 17:18:55;;;;;;;0.77;0.70;;;;;;;15.24;100.00;99434.00;10420890;27;96573;-75
2022/11/16 17:23:58;;;;;;;3.03;0.93;;;;;;;15.26;100.00;99422.41;10427776;28;97325;-75
2022/11/16 17:29:03;;;;;;;3.10;0.80;;;;;;;15.28;100.00;99427.56;10427478;28;96806;-75
2022/11/16 17:34:06;;;;;;;;;;;;;;;15.24;100.00;99426.94;10428218;28;96932;-75
2022/11/16 17:39:15;;;;;;;4.82;0.85;;;;;;;15.27;100.00;99420.63;10427622;28;96756;-75
2022/11/16 17:44:20;;;;;;;0.90;0.50;;;;;;;15.25;100.00;99422.50;10427022;28;96822;-75
2022/11/16 17:49:24;;;;;;;0.82;0.70;;;;;;;15.28;100.00;99423.13;10426812;28;96752;-75
2022/11/16 17:54:27;;;;;;;1.67;0.68;;;;;;;15.28;100.00;99435.47;10427497;28;97042;-75
2022/11/16 17:59:32;;;;;;;1.42;1.10;;;;;;;15.28;100.00;99440.75;10426601;28;96707;-75
2022/11/16 18:04:35;;;;;;;1.92;1.10;;;;;;;15.29;100.00;99431.91;10426432;28;96723;-75
2022/11/16 18:09:38;;;;;;;3.17;0.90;;;;;;;15.31;100.00;99437.91;10425157;28;96931;-75
2022/11/16 18:14:42;;;;;;;1.42;0.90;;;;;;;15.27;100.00;99436.44;10425855;28;96688;-75
2022/11/16 18:20:07;;;;;;;2.15;1.10;;;;;;;15.28;100.00;99430.19;10425686;28;96572;-75
2022/11/16 18:25:10;;;;;;;3.38;1.10;;;;;;;15.25;100.00;99451.47;10425845;28;96695;-75
2022/11/16 18:30:15;;;;;;;2.60;0.90;;;;;;;15.27;100.00;99442.53;10423172;28;96691;-75
2022/11/16 18:35:18;;;;;;;1.45;0.75;;;;;;;15.30;100.00;99449.38;10425249;28;96752;-75
2022/11/16 18:40:21;;;;;;;2.63;1.02;;;;;;;15.29;100.00;99458.25;10424540;28;96845;-75
2022/11/16 18:45:26;;;;;;;2.92;1.23;;;;;;;15.31;100.00;99465.09;10425944;28;96596;-75
2022/11/16 18:50:29;;;;;;;1.45;0.98;;;;;;;15.36;100.00;99448.16;10425052;28;96776;-76
2022/11/16 18:55:32;;;;;;;1.48;1.10;;;;;;;15.38;100.00;99455.00;10424547;28;96735;-75
2022/11/16 19:00:37;;;;;;;1.83;1.20;;;;;;;15.39;100.00;99440.91;10424132;28;96875;-75
2022/11/16 19:05:40;;;;;;;;;;;;;;;15.37;100.00;99453.31;10424536;28;96766;-75
2022/11/16 19:10:43;;;;;;;2.03;1.02;;;;;;;15.37;100.00;99448.03;10423636;28;96741;-75
2022/11/16 19:15:48;;;;;;;2.10;0.57;;;;;;;15.39;100.00;99443.53;10424356;28;96760;-75
2022/11/16 19:20:52;;;;;;;1.42;0.90;;;;;;;15.42;100.00;99435.41;10423603;28;96704;-75
2022/11/16 19:26:00;;;;;;;1.85;0.90;;;;;;;15.43;100.00;99437.13;10423855;28;96806;-75
2022/11/16 19:31:09;;;;;;;1.48;1.00;;;;;;;15.46;100.00;99436.91;10423018;28;97181;-75
2022/11/16 19:36:15;;;;;;;3.17;0.80;;;;;;;15.50;100.00;99433.13;10424145;28;96687;-75
2022/11/16 19:41:20;;;;;;;1.60;1.00;;;;;;;15.56;100.00;99439.78;10422048;27;96644;-76
2022/11/16 19:46:25;;;;;;;1.20;0.90;;;;;;;15.56;100.00;99436.31;10421765;28;96850;-76
2022/11/16 19:51:30;;;;;;;2.10;1.23;;;;;;;15.61;100.00;99439.53;10421721;28;96736;-76
2022/11/16 19:56:33;;;;;;;;;;;;;;;15.53;100.00;99437.38;10422913;28;96731;-76
2022/11/16 20:01:38;;;;;;;1.23;0.68;;;;;;;15.50;100.00;99433.13;10422731;28;96873;-75
2022/11/16 20:06:41;;;;;;;0.85;0.60;;;;;;;15.55;100.00;99432.84;10422322;28;96726;-76
2022/11/16 20:11:44;;;;;;;1.25;0.88;;;;;;;15.55;100.00;99440.75;10422052;28;98535;-75
2022/11/16 20:16:49;;;;;;;0.90;0.80;;;;;;;15.53;100.00;99447.03;10422147;28;96563;-75
2022/11/16 20:21:54;;;;;;;1.95;0.90;;;;;;;15.54;100.00;99441.69;10421761;28;97432;-75
2022/11/16 20:26:57;;;;;;;1.42;0.80;;;;;;;15.55;100.00;99445.16;10422326;28;96671;-75
2022/11/16 20:32:01;;;;;;;0.95;0.50;;;;;;;15.56;100.00;99446.84;10421806;28;97034;-75
2022/11/16 20:37:06;;;;;;;1.95;0.70;;;;;;;15.50;100.00;99433.13;10421555;28;96769;-75
2022/11/16 20:42:09;;;;;;;1.75;0.47;;;;;;;15.54;100.00;99433.78;10420058;28;97359;-75
2022/11/16 20:47:13;;;;;;;0.30;0.30;;;;;;;15.58;100.00;99434.41;10421255;28;96686;-76
2022/11/16 20:52:17;;;;;;;0.75;0.40;;;;;;;15.58;100.00;99444.94;10420417;28;96836;-75
2022/11/16 20:57:20;;;;;;;1.15;0.70;;;;;;;15.56;100.00;99446.84;10420826;28;96785;-75
2022/11/16 21:02:24;;;;;;;0.77;0.60;;;;;;;15.56;100.00;99441.56;10420948;28;96964;-75
2022/11/16 21:07:29;;;;;;;4.18;0.80;;;;;;;15.55;100.00;99450.41;10420706;28;96544;-75
2022/11/16 21:17:54;;;;;;;2.45;0.52;;;;;;;15.56;100.00;99452.94;10421534;28;97043;-76
2022/11/16 21:22:57;;;;;;;1.55;0.57;;;;;;;15.57;100.00;99449.38;10420488;28;96698;-75
2022/11/16 21:28:00;;;;;;;1.88;0.50;;;;;;;15.57;100.00;99452.03;10418948;28;96825;-75
2022/11/16 21:33:05;;;;;;;0.68;0.50;;;;;;;15.60;100.00;99472.06;10418893;28;97029;-75
2022/11/16 21:38:08;;;;;;;1.52;0.60;;;;;;;15.59;100.00;99463.34;10419833;28;96613;-75
2022/11/16 21:43:13;;;;;;;0.93;0.77;;;;;;;15.60;100.00;99457.13;10419820;28;96834;-75
2022/11/16 21:48:18;;;;;;;1.45;0.68;;;;;;;15.59;100.00;99460.69;10419705;28;96773;-75
2022/11/16 21:53:21;;;;;;;;;;;;;;;15.60;100.00;99469.44;10420127;28;96682;-75
2022/11/16 21:58:24;;;;;;;0.70;0.52;;;;;;;15.62;100.00;99468.41;10420069;28;96839;-75
2022/11/16 22:03:31;;;;;;;0.85;0.50;;;;;;;15.58;100.00;99474.84;10419259;28;96645;-75
2022/11/16 22:08:35;;;;;;;1.70;0.77;;;;;;;15.63;100.00;99467.47;10425436;27;96639;-75
2022/11/16 22:13:38;;;;;;;1.45;0.60;;;;;;;15.64;100.00;99470.94;10426521;28;96771;-75
2022/11/16 22:18:43;;;;;;;1.57;0.60;;;;;;;15.65;100.00;99462.06;10426184;28;96776;-75
2022/11/16 22:23:46;;;;;;;1.83;0.50;;;;;;;15.67;100.00;99471.59;10424475;28;96549;-75
2022/11/16 22:28:52;;;;;;;1.67;0.52;;;;;;;15.67;100.00;99476.84;10426078;28;96899;-75
2022/11/16 22:33:56;;;;;;;1.67;0.45;;;;;;;15.68;100.00;99475.06;10425671;28;96712;-75
2022/11/16 22:39:00;;;;;;;1.58;0.50;;;;;;;15.66;100.00;99479.59;10425145;28;97430;-75
2022/11/16 22:44:04;;;;;;;2.20;0.68;;;;;;;15.68;100.00;99477.69;10424579;28;96893;-76
2022/11/16 22:49:08;;;;;;;2.42;0.32;;;;;;;15.71;100.00;99477.50;10425024;28;96612;-75
2022/11/16 22:54:14;;;;;;;1.38;0.32;;;;;;;15.72;100.00;99458.13;10424336;28;96803;-76
2022/11/16 22:59:17;;;;;;;0.60;0.30;;;;;;;15.71;100.00;99459.06;10425572;28;96717;-75
2022/11/16 23:04:22;;;;;;;2.83;0.73;;;;;;;15.72;100.00;99463.38;10424863;28;96738;-75
2022/11/16 23:09:25;;;;;;;;;;;;;;;15.66;100.00;99461.97;10424843;28;96980;-75
2022/11/16 23:30:38;;;;;;;1.00;0.40;;;;;;;15.72;100.00;99442.31;10423398;28;96808;-75
2022/11/16 23:35:43;;;;;;;1.67;0.40;;;;;;;15.76;100.00;99448.22;10423493;28;96743;-75
2022/11/16 23:40:46;;;;;;;1.27;0.43;;;;;;;15.77;100.00;99440.22;10422979;28;96810;-75
2022/11/16 23:45:49;;;;;;;1.63;0.43;;;;;;;15.81;100.00;99436.41;10423323;28;96636;-75
2022/11/16 23:50:54;;;;;;;1.15;0.60;;;;;;;15.80;100.00;99423.31;10423721;28;96778;-75
2022/11/16 23:56:02;;;;;;;1.02;0.47;;;;;;;15.84;100.00;99422.16;10422926;28;96557;-76
